Time;durP1;ratioP1;P1;durP2;ratioP2;P2;SDS_P1;SDS_P2;PMS_P1;PMS_P2;Temp;Humidity;BMP_temperature;BMP_pressure;BME280_temperature;BME280_humidity;BME280_pressure;Samples;Min_cycle;Max_cycle;Signal;HPM_P1;HPM_P2
2024/01/24 00:00:01;;;;;;;2.38;0.70;;;;;;;-145.69;47.65;52210.72;5134702;27;20911;-81
2024/01/24 00:02:29;;;;;;;2.30;0.90;;;;;;;-145.69;48.30;52232.50;5135006;27;20193;-81
2024/01/24 00:04:55;;;;;;;3.10;0.70;;;;;;;-145.69;48.32;52250.31;5134610;27;20207;-81
2024/01/24 00:07:22;;;;;;;2.40;0.80;;;;;;;-145.69;48.00;52202.78;5134586;27;20192;-80
2024/01/24 00:09:48;;;;;;;1.55;0.90;;;;;;;-145.69;48.46;52228.53;5134573;27;20227;-81
2024/01/24 00:12:14;;;;;;;3.00;0.90;;;;;;;-145.69;48.34;52226.53;5134456;27;20201;-80
2024/01/24 00:14:41;;;;;;;2.38;0.80;;;;;;;-145.69;48.95;52194.88;5134637;27;20659;-82
2024/01/24 00:17:08;;;;;;;1.67;0.80;;;;;;;-145.69;49.15;52222.59;5134721;27;20655;-81
2024/01/24 00:19:37;;;;;;;3.20;0.83;;;;;;;-145.69;49.76;52218.63;5134554;27;20228;-80
2024/01/24 00:22:04;;;;;;;3.10;1.00;;;;;;;-145.69;49.58;52216.66;5133596;27;20203;-80
2024/01/24 00:24:30;;;;;;;1.85;0.65;;;;;;;-145.69;49.63;52228.53;5132922;27;20200;-81
2024/01/24 00:26:57;;;;;;;3.30;0.80;;;;;;;-145.69;49.92;52216.66;5134493;27;20197;-81
2024/01/24 00:29:23;;;;;;;3.55;0.75;;;;;;;-145.69;49.27;52226.53;5134384;27;20196;-82
2024/01/24 00:31:50;;;;;;;5.07;0.90;;;;;;;-145.69;49.40;52222.59;5134091;27;20197;-81
2024/01/24 00:34:17;;;;;;;5.15;0.90;;;;;;;-145.69;49.94;52212.69;5134445;27;20197;-81
2024/01/24 00:36:44;;;;;;;3.05;0.80;;;;;;;-145.69;49.91;52220.59;5134129;27;20207;-81
2024/01/24 00:39:13;;;;;;;4.32;0.93;;;;;;;-145.69;49.75;52230.50;5133687;27;20225;-81
2024/01/24 00:41:41;;;;;;;3.38;1.05;;;;;;;-145.69;50.11;52240.41;5133569;27;20284;-80
2024/01/24 00:44:07;;;;;;;2.67;0.77;;;;;;;-145.69;50.34;52210.72;5133232;27;20227;-80
2024/01/24 00:46:34;;;;;;;2.50;0.90;;;;;;;-145.69;50.42;52238.44;5115928;27;20655;-80
2024/01/24 00:49:03;;;;;;;2.08;0.80;;;;;;;-145.69;50.47;52214.66;5113130;28;20232;-81
2024/01/24 00:51:29;;;;;;;4.30;1.00;;;;;;;-145.69;50.17;52230.50;5127145;27;20192;-80
2024/01/24 00:53:57;;;;;;;3.75;1.20;;;;;;;-145.69;50.72;52242.38;5134283;27;20204;-80
2024/01/24 00:56:24;;;;;;;2.15;0.93;;;;;;;-145.69;50.46;52218.63;5133435;27;20207;-81
2024/01/24 00:58:50;;;;;;;5.38;1.30;;;;;;;-145.69;50.82;52214.66;5133530;27;20258;-80
2024/01/24 01:01:17;;;;;;;4.57;0.98;;;;;;;-145.69;50.54;52224.56;5133746;27;20200;-81
2024/01/24 01:03:43;;;;;;;4.82;1.08;;;;;;;-145.69;50.55;52238.44;5133291;27;20196;-80
2024/01/24 01:06:10;;;;;;;1.00;0.75;;;;;;;-145.69;50.20;52210.72;5133359;27;20677;-80
2024/01/24 01:08:36;;;;;;;3.60;1.05;;;;;;;-145.69;50.75;52236.44;5133775;27;20223;-81
2024/01/24 01:11:05;;;;;;;3.22;0.95;;;;;;;-145.69;50.92;52248.34;5133933;27;20199;-80
2024/01/24 01:13:32;;;;;;;2.45;0.70;;;;;;;-145.69;51.34;52210.72;5133419;27;20234;-80
2024/01/24 01:15:59;;;;;;;3.63;0.93;;;;;;;-145.69;51.08;52206.75;5133274;27;20197;-80
2024/01/24 01:18:25;;;;;;;5.00;1.43;;;;;;;-145.69;51.23;52206.75;5133277;27;20200;-81
2024/01/24 01:20:51;;;;;;;1.83;0.77;;;;;;;-145.69;52.00;52234.47;5133765;27;20235;-80
2024/01/24 01:23:18;;;;;;;2.47;0.87;;;;;;;-145.69;51.83;52224.56;5132996;27;20200;-80
2024/01/24 01:25:44;;;;;;;4.30;0.70;;;;;;;-145.69;51.51;52260.22;5133625;27;20204;-82
2024/01/24 01:28:12;;;;;;;3.08;0.95;;;;;;;-145.69;52.04;52230.50;5133511;27;20286;-80
2024/01/24 01:30:38;;;;;;;2.72;0.90;;;;;;;-145.69;52.74;52218.63;5133599;27;20197;-80
2024/01/24 01:33:05;;;;;;;3.35;1.08;;;;;;;-145.69;52.59;52240.41;5132836;27;20667;-80
2024/01/24 01:35:33;;;;;;;1.87;0.77;;;;;;;-145.69;52.58;52232.50;5133449;28;20201;-81
2024/01/24 01:37:59;;;;;;;2.57;0.80;;;;;;;-145.69;53.20;52202.78;5133470;27;20585;-81
2024/01/24 01:40:26;;;;;;;4.83;0.80;;;;;;;-145.69;52.93;52198.81;5133286;27;20224;-81
2024/01/24 01:42:52;;;;;;;1.98;0.73;;;;;;;-145.69;52.89;52222.59;5132006;27;20226;-81
2024/01/24 01:45:21;;;;;;;6.88;1.55;;;;;;;-145.69;53.42;52238.44;5133313;28;20197;-80
2024/01/24 01:47:50;;;;;;;1.55;0.75;;;;;;;-145.69;53.20;52240.41;5133131;28;20235;-81
2024/01/24 01:50:18;;;;;;;3.53;0.82;;;;;;;-145.69;53.55;52226.53;5133584;27;20205;-80
2024/01/24 01:52:45;;;;;;;3.47;0.95;;;;;;;-145.69;53.80;52230.50;5133422;27;20193;-81
2024/01/24 01:55:13;;;;;;;2.38;0.73;;;;;;;-145.69;54.72;52210.72;5132711;28;20647;-80
2024/01/24 01:57:42;;;;;;;1.25;0.90;;;;;;;-145.69;54.58;52234.47;5133309;28;20196;-80
2024/01/24 02:00:11;;;;;;;2.20;0.70;;;;;;;-145.69;55.28;52214.66;5132591;27;20224;-81
2024/01/24 02:02:39;;;;;;;0.60;0.60;;;;;;;-145.69;54.74;52214.66;5134797;27;20283;-81
2024/01/24 02:05:06;;;;;;;2.63;0.87;;;;;;;-145.69;54.46;52228.53;5137110;27;20249;-81
2024/01/24 02:07:33;;;;;;;3.60;1.00;;;;;;;-145.69;54.89;52186.94;5137315;27;20193;-81
2024/01/24 02:09:59;;;;;;;1.30;0.77;;;;;;;-145.69;56.02;52238.44;5136595;27;20208;-80
2024/01/24 02:12:26;;;;;;;2.17;0.67;;;;;;;-145.69;55.46;52246.34;5136402;27;20201;-80
2024/01/24 02:14:52;;;;;;;2.03;0.70;;;;;;;-145.69;55.82;52240.41;5136971;27;20197;-80
2024/01/24 02:17:18;;;;;;;1.37;0.70;;;;;;;-145.69;55.84;52248.34;5137015;27;20204;-81
2024/01/24 02:19:46;;;;;;;3.10;1.00;;;;;;;-145.69;56.42;52192.88;5136583;27;20346;-81
2024/01/24 02:22:13;;;;;;;2.97;0.90;;;;;;;-145.69;56.25;52214.66;5116309;28;20293;-80
2024/01/24 02:24:40;;;;;;;2.40;0.80;;;;;;;-145.69;56.40;52218.63;5120095;27;20670;-80
2024/01/24 02:27:07;;;;;;;4.28;0.73;;;;;;;-145.69;56.52;52206.75;5136603;27;20197;-81
2024/01/24 02:29:33;;;;;;;1.17;0.80;;;;;;;-145.69;57.15;52262.19;5136298;27;20200;-80
2024/01/24 02:32:00;;;;;;;3.83;0.80;;;;;;;-145.69;58.00;52230.50;5137047;27;20281;-80
2024/01/24 02:34:26;;;;;;;1.13;0.80;;;;;;;-145.69;57.20;52220.59;5136005;27;20200;-80
2024/01/24 02:36:53;;;;;;;2.90;0.65;;;;;;;-145.69;56.96;52200.81;5136601;27;20207;-80
2024/01/24 02:39:19;;;;;;;2.40;0.85;;;;;;;-145.69;56.80;52248.34;5136768;27;20228;-80
2024/01/24 02:41:47;;;;;;;3.88;1.40;;;;;;;-145.69;56.56;52228.53;5136117;27;20200;-80
2024/01/24 02:44:14;;;;;;;3.65;0.90;;;;;;;-145.69;55.61;52228.53;5136160;27;20225;-80
2024/01/24 02:46:40;;;;;;;4.53;0.95;;;;;;;-145.69;56.81;52270.13;5136289;27;20197;-81
2024/01/24 02:49:06;;;;;;;5.72;1.10;;;;;;;-145.69;56.84;52226.53;5136302;27;20225;-81
2024/01/24 02:51:33;;;;;;;2.15;0.80;;;;;;;-145.69;57.11;52212.69;5136330;27;20201;-81
2024/01/24 02:53:59;;;;;;;1.90;1.00;;;;;;;-145.69;57.32;52246.34;5127393;27;20209;-81
2024/01/24 02:56:26;;;;;;;2.78;1.00;;;;;;;-145.69;57.23;52246.34;5118259;27;20231;-80
2024/01/24 02:58:54;;;;;;;5.90;1.20;;;;;;;-145.69;56.58;52208.72;5136215;27;20196;-79
2024/01/24 03:01:21;;;;;;;2.42;0.80;;;;;;;-145.69;56.54;52216.66;5136144;27;20224;-80
2024/01/24 03:03:47;;;;;;;3.55;0.73;;;;;;;-145.69;56.77;52214.66;5135648;27;20200;-80
2024/01/24 03:06:13;;;;;;;1.70;0.80;;;;;;;-145.69;56.95;52246.34;5135727;27;20196;-80
2024/01/24 03:08:59;;;;;;;2.72;0.90;;;;;;;-145.69;57.45;52210.72;5134754;27;20203;-80
2024/01/24 03:11:25;;;;;;;0.67;0.67;;;;;;;-145.69;57.93;52258.22;5135554;27;20207;-80
2024/01/24 03:13:53;;;;;;;4.40;0.88;;;;;;;-145.69;57.32;52218.63;5134616;27;20199;-80
2024/01/24 03:16:20;;;;;;;4.88;0.95;;;;;;;-145.69;58.38;52202.78;5135699;27;20203;-80
2024/01/24 03:18:47;;;;;;;2.27;0.90;;;;;;;-145.69;57.77;52250.31;5135947;27;20208;-80
2024/01/24 03:21:16;;;;;;;2.70;1.00;;;;;;;-145.69;57.85;52232.50;5135106;27;20231;-80
2024/01/24 03:23:42;;;;;;;2.43;1.07;;;;;;;-145.69;57.92;52250.31;5135403;27;20201;-79
2024/01/24 03:26:08;;;;;;;2.13;0.80;;;;;;;-145.69;57.60;52226.53;5135708;27;20196;-80
2024/01/24 03:28:35;;;;;;;1.57;1.00;;;;;;;-145.69;58.52;52218.63;5135635;27;20204;-79
2024/01/24 03:31:03;;;;;;;2.70;1.20;;;;;;;-145.69;57.68;52206.75;5135528;27;20246;-81
2024/01/24 03:33:30;;;;;;;3.67;1.13;;;;;;;-145.69;58.18;52258.22;5135684;27;20674;-81
2024/01/24 03:35:56;;;;;;;2.83;0.90;;;;;;;-145.69;57.80;52196.84;5135506;27;20192;-81
2024/01/24 03:38:23;;;;;;;3.03;1.07;;;;;;;-145.69;58.14;52212.69;5135028;27;20203;-80
2024/01/24 03:40:50;;;;;;;4.18;0.85;;;;;;;-145.69;57.93;52220.59;5135047;27;20224;-80
2024/01/24 03:43:16;;;;;;;6.22;0.95;;;;;;;-145.69;57.75;52234.47;5135621;27;20196;-80
2024/01/24 03:45:42;;;;;;;3.90;0.90;;;;;;;-145.69;57.65;52238.44;5135386;27;20204;-80
2024/01/24 03:48:10;;;;;;;5.43;0.98;;;;;;;-145.69;57.57;52222.59;5135027;27;20264;-81
2024/01/24 03:50:37;;;;;;;2.20;0.90;;;;;;;-145.69;57.71;52228.53;5134996;27;20543;-80
2024/01/24 03:53:04;;;;;;;4.57;0.93;;;;;;;-145.69;57.93;52240.41;5135086;27;20224;-81
2024/01/24 03:55:31;;;;;;;2.60;1.00;;;;;;;-145.69;57.37;52214.66;5135017;27;20208;-80
2024/01/24 03:57:58;;;;;;;1.90;0.82;;;;;;;-145.69;57.23;52212.69;5134843;27;20208;-81
2024/01/24 04:00:25;;;;;;;2.28;0.73;;;;;;;-145.69;57.06;52230.50;5134868;27;20224;-81
2024/01/24 04:02:51;;;;;;;1.52;1.15;;;;;;;-145.69;57.13;52228.53;5132092;27;20200;-80
2024/01/24 04:05:19;;;;;;;3.92;0.90;;;;;;;-145.69;56.99;52208.72;5134878;27;20200;-81
2024/01/24 04:07:46;;;;;;;0.80;0.80;;;;;;;-145.69;56.98;52206.75;5134600;27;20192;-80
2024/01/24 04:10:12;;;;;;;2.42;1.00;;;;;;;-145.69;57.12;52240.41;5134826;27;20223;-81
2024/01/24 04:12:39;;;;;;;3.38;0.95;;;;;;;-145.69;56.90;52210.72;5134581;27;20203;-80
2024/01/24 04:15:06;;;;;;;3.45;0.90;;;;;;;-145.69;56.73;52202.78;5134388;27;20228;-79
2024/01/24 04:17:33;;;;;;;3.75;0.95;;;;;;;-145.69;57.08;52218.63;5134325;27;20196;-80
2024/01/24 04:19:59;;;;;;;2.90;1.02;;;;;;;-145.69;56.24;52192.88;5134663;27;20239;-80
2024/01/24 04:22:27;;;;;;;1.55;0.88;;;;;;;-145.69;56.68;52194.88;5134096;27;20231;-80
2024/01/24 04:24:53;;;;;;;1.30;0.70;;;;;;;-145.69;56.53;52188.91;5133946;27;20776;-81
2024/01/24 04:27:20;;;;;;;4.28;1.20;;;;;;;-145.69;56.47;52194.88;5134370;27;20189;-80
2024/01/24 04:29:47;;;;;;;2.28;1.00;;;;;;;-145.69;56.71;52200.81;5134448;27;20708;-80
2024/01/24 04:32:13;;;;;;;2.42;0.80;;;;;;;-145.69;56.40;52212.69;5134004;27;20204;-80
2024/01/24 04:34:39;;;;;;;3.13;0.85;;;;;;;-145.69;56.27;52218.63;5133798;27;20643;-80
2024/01/24 04:37:06;;;;;;;1.38;0.77;;;;;;;-145.69;56.29;52240.41;5133795;27;20217;-80
2024/01/24 04:39:34;;;;;;;2.95;0.88;;;;;;;-145.69;56.36;52194.88;5134267;27;20189;-80
2024/01/24 04:42:00;;;;;;;2.20;1.13;;;;;;;-145.69;56.41;52202.78;5134110;27;20197;-79
2024/01/24 04:44:26;;;;;;;2.60;0.85;;;;;;;-145.69;56.15;52206.75;5133500;27;20201;-80
2024/01/24 04:46:53;;;;;;;1.88;0.90;;;;;;;-145.69;55.47;52218.63;5133798;27;20209;-81
2024/01/24 04:49:20;;;;;;;1.15;0.80;;;;;;;-145.69;55.74;52218.63;5133960;27;20228;-80
2024/01/24 04:51:48;;;;;;;1.65;0.93;;;;;;;-145.69;55.80;52198.81;5133857;27;20655;-80
2024/01/24 04:54:15;;;;;;;2.28;0.90;;;;;;;-145.69;55.66;52175.06;5121895;27;20197;-80
2024/01/24 04:56:46;;;;;;;3.95;1.10;;;;;;;-145.69;55.21;52206.75;5113582;28;20202;-83
2024/01/24 04:59:12;;;;;;;1.75;0.90;;;;;;;-145.69;55.26;52234.47;5130697;27;20200;-81
2024/01/24 05:01:39;;;;;;;2.53;0.82;;;;;;;-145.69;54.82;52179.03;5134115;27;20236;-81
2024/01/24 05:04:05;;;;;;;1.33;0.80;;;;;;;-145.69;54.80;52159.22;5133780;27;20201;-80
2024/01/24 05:06:32;;;;;;;5.60;1.10;;;;;;;-145.69;54.86;52214.66;5133559;27;20201;-81
2024/01/24 05:08:58;;;;;;;1.98;0.90;;;;;;;-145.69;54.66;52254.28;5133101;27;20196;-81
2024/01/24 05:11:25;;;;;;;2.85;1.00;;;;;;;-145.69;54.13;52218.63;5133139;27;20231;-80
2024/01/24 05:13:53;;;;;;;3.45;1.00;;;;;;;-145.69;54.76;52218.63;5133338;27;20207;-80
2024/01/24 05:16:19;;;;;;;1.27;0.80;;;;;;;-145.69;55.34;52208.72;5114340;28;20197;-81
2024/01/24 05:18:46;;;;;;;3.67;1.00;;;;;;;-145.69;55.76;52163.19;5133229;27;20196;-81
2024/01/24 05:21:12;;;;;;;3.85;0.85;;;;;;;-145.69;56.12;52206.75;5133660;27;20624;-80
2024/01/24 05:23:40;;;;;;;7.32;0.80;;;;;;;-145.69;55.94;52202.78;5133460;27;20199;-81
2024/01/24 05:26:06;;;;;;;3.15;0.70;;;;;;;-145.69;55.60;52218.63;5133219;27;20201;-81
2024/01/24 05:28:33;;;;;;;4.40;1.70;;;;;;;-145.69;55.41;52198.81;5133577;27;20204;-80
2024/01/24 05:31:01;;;;;;;1.77;1.02;;;;;;;-145.69;55.37;52196.84;5132244;27;20242;-81
2024/01/24 05:33:28;;;;;;;1.98;0.80;;;;;;;-145.69;56.00;52204.75;5133703;28;20207;-81
2024/01/24 05:35:54;;;;;;;2.00;0.95;;;;;;;-145.69;55.62;52210.72;5133384;27;20204;-80
2024/01/24 05:38:21;;;;;;;2.38;1.00;;;;;;;-145.69;55.40;52220.59;5136260;27;20205;-80
2024/01/24 05:40:47;;;;;;;1.73;0.80;;;;;;;-145.69;55.46;52200.81;5137434;27;20709;-80
2024/01/24 05:43:14;;;;;;;1.67;0.90;;;;;;;-145.69;55.89;52175.06;5138037;27;20196;-80
2024/01/24 05:45:40;;;;;;;2.38;0.88;;;;;;;-145.69;55.89;52194.88;5137600;27;20201;-80
2024/01/24 05:48:09;;;;;;;1.27;1.02;;;;;;;-145.69;56.02;52186.94;5137177;27;20220;-80
2024/01/24 05:50:35;;;;;;;1.88;1.02;;;;;;;-145.69;56.09;52175.06;5137351;27;20257;-81
2024/01/24 05:53:01;;;;;;;2.15;1.00;;;;;;;-145.69;55.79;52212.69;5137397;27;20562;-80
2024/01/24 05:55:28;;;;;;;4.50;1.10;;;;;;;-145.69;55.77;52188.91;5136970;27;20520;-79
2024/01/24 05:57:55;;;;;;;1.27;0.70;;;;;;;-145.69;55.89;52208.72;5137631;27;20202;-80
2024/01/24 06:00:21;;;;;;;1.70;1.10;;;;;;;-145.69;56.14;52179.03;5137460;27;20228;-80
2024/01/24 06:02:47;;;;;;;3.53;1.02;;;;;;;-145.69;55.67;52202.78;5137220;27;20203;-80
2024/01/24 06:05:16;;;;;;;2.63;1.08;;;;;;;-145.69;55.77;52206.75;5137246;27;20224;-80
2024/01/24 06:07:42;;;;;;;1.73;0.80;;;;;;;-145.69;56.02;52200.81;5136335;27;20716;-80
2024/01/24 06:10:10;;;;;;;7.43;2.28;;;;;;;-145.69;56.35;52202.78;5136781;27;20196;-80
2024/01/24 06:12:36;;;;;;;4.50;1.90;;;;;;;-145.69;56.65;52198.81;5137245;27;20197;-80
2024/01/24 06:15:03;;;;;;;1.33;0.88;;;;;;;-145.69;56.57;52218.63;5136908;27;20199;-80
2024/01/24 06:17:29;;;;;;;2.75;1.13;;;;;;;-145.69;56.62;52214.66;5137244;27;20219;-80
2024/01/24 06:19:56;;;;;;;2.30;1.10;;;;;;;-145.69;56.38;52206.75;5136822;27;20201;-80
2024/01/24 06:22:24;;;;;;;3.13;1.38;;;;;;;-145.69;56.43;52204.75;5136936;27;20630;-80
2024/01/24 06:24:50;;;;;;;2.83;1.20;;;;;;;-145.69;56.02;52192.88;5137096;27;20189;-80
2024/01/24 06:27:17;;;;;;;1.50;1.10;;;;;;;-145.69;55.89;52220.59;5136855;27;20197;-80
2024/01/24 06:29:43;;;;;;;3.55;1.23;;;;;;;-145.69;55.98;52179.03;5136885;27;20566;-80
2024/01/24 06:32:10;;;;;;;5.05;1.20;;;;;;;-145.69;56.12;52188.91;5136817;27;20208;-80
2024/01/24 06:34:37;;;;;;;2.95;1.05;;;;;;;-145.69;56.22;52175.06;5136301;27;20200;-82
2024/01/24 06:37:03;;;;;;;3.90;0.88;;;;;;;-145.69;56.72;52175.06;5136423;27;20220;-81
2024/01/24 06:39:31;;;;;;;2.55;1.10;;;;;;;-145.69;56.47;52179.03;5136445;27;20204;-80
2024/01/24 06:41:58;;;;;;;2.13;0.93;;;;;;;-145.69;56.17;52214.66;5135970;27;20221;-80
2024/01/24 06:44:25;;;;;;;2.28;1.13;;;;;;;-145.69;56.01;52190.91;5136459;27;20200;-80
2024/01/24 06:46:52;;;;;;;1.75;0.90;;;;;;;-145.69;55.85;52184.97;5135675;27;20203;-79
2024/01/24 06:49:18;;;;;;;2.25;0.85;;;;;;;-145.69;55.52;52198.81;5135892;27;20698;-80
2024/01/24 06:51:45;;;;;;;2.72;1.00;;;;;;;-145.69;55.35;52222.59;5136252;27;20201;-80
2024/01/24 06:54:13;;;;;;;3.38;1.08;;;;;;;-145.69;55.79;52198.81;5136536;27;20292;-81
2024/01/24 06:56:40;;;;;;;1.85;0.70;;;;;;;-145.69;55.19;52204.75;5123594;27;20194;-80
2024/01/24 06:59:07;;;;;;;1.08;0.98;;;;;;;-145.69;54.96;52186.94;5115768;28;20283;-81
2024/01/24 07:01:33;;;;;;;1.88;1.08;;;;;;;-145.69;54.99;52198.81;5135075;27;20582;-80
2024/01/24 07:04:00;;;;;;;2.65;0.70;;;;;;;-145.69;54.75;52202.78;5136060;27;20204;-79
2024/01/24 07:06:26;;;;;;;0.70;0.70;;;;;;;-145.69;54.68;52184.97;5135338;27;20201;-81
2024/01/24 07:08:52;;;;;;;1.15;0.70;;;;;;;-145.69;55.04;52202.78;5136209;27;20207;-80
2024/01/24 07:11:19;;;;;;;3.00;0.77;;;;;;;-145.69;55.19;52194.88;5135496;27;20683;-81
2024/01/24 07:13:47;;;;;;;3.53;1.20;;;;;;;-145.69;54.96;52190.91;5135878;27;20192;-81
2024/01/24 07:16:13;;;;;;;0.80;0.75;;;;;;;-145.69;54.65;52216.66;5135796;27;20197;-80
2024/01/24 07:18:39;;;;;;;1.15;0.90;;;;;;;-145.69;54.68;52186.94;5135821;27;20193;-80
2024/01/24 07:21:08;;;;;;;1.30;0.70;;;;;;;-145.69;54.37;52198.81;5135661;27;20555;-79
2024/01/24 07:23:34;;;;;;;1.00;0.70;;;;;;;-145.69;54.96;52192.88;5134921;27;20203;-79
2024/01/24 07:26:02;;;;;;;0.60;0.60;;;;;;;-145.69;53.75;52208.72;5135633;27;20201;-79
2024/01/24 07:28:29;;;;;;;0.65;0.65;;;;;;;-145.69;53.92;52198.81;5135543;27;20201;-80
2024/01/24 07:30:57;;;;;;;1.05;0.47;;;;;;;-145.69;54.27;52214.66;5135828;27;20239;-79
2024/01/24 07:33:24;;;;;;;2.00;0.70;;;;;;;-145.69;53.98;52175.06;5135030;27;20203;-80
2024/01/24 07:35:50;;;;;;;0.68;0.68;;;;;;;-145.69;53.32;52196.84;5135831;27;20293;-81
2024/01/24 07:38:18;;;;;;;0.40;0.40;;;;;;;-145.69;53.04;52202.78;5135296;27;20284;-79
2024/01/24 07:40:45;;;;;;;0.60;0.60;;;;;;;-145.69;51.27;52181.00;5135119;27;20203;-80
2024/01/24 07:43:11;;;;;;;2.25;0.90;;;;;;;-145.69;51.27;52171.09;5135380;27;20196;-79
2024/01/24 07:45:37;;;;;;;0.90;0.70;;;;;;;-145.69;51.22;52206.75;5135177;27;20196;-79
2024/01/24 07:48:07;;;;;;;1.52;0.90;;;;;;;-145.69;51.53;52190.91;5134467;27;20236;-80
2024/01/24 07:50:34;;;;;;;0.63;0.63;;;;;;;-145.69;51.61;52190.91;5135614;27;20245;-81
2024/01/24 07:53:00;;;;;;;1.70;1.10;;;;;;;-145.69;51.27;52190.91;5134885;27;20195;-80
2024/01/24 07:55:27;;;;;;;2.15;0.80;;;;;;;-145.69;51.00;52143.38;5135221;27;20201;-80
2024/01/24 07:57:53;;;;;;;1.55;0.88;;;;;;;-145.69;51.33;52163.19;5134904;27;20227;-80
2024/01/24 08:00:20;;;;;;;0.93;0.60;;;;;;;-145.69;51.28;52179.03;5133880;27;20211;-80
2024/01/24 08:02:46;;;;;;;0.60;0.60;;;;;;;-145.69;51.35;52175.06;5134451;27;20228;-79
2024/01/24 08:05:14;;;;;;;0.50;0.47;;;;;;;-145.69;51.10;52167.13;5134464;27;20686;-81
2024/01/24 08:07:41;;;;;;;1.65;0.60;;;;;;;-145.69;51.90;52179.03;5134642;27;20196;-81
2024/01/24 08:10:10;;;;;;;1.25;0.50;;;;;;;-145.69;52.57;52190.91;5134514;27;20200;-81
2024/01/24 08:12:37;;;;;;;0.90;0.60;;;;;;;-145.69;52.82;52186.94;5134562;27;20288;-81
2024/01/24 08:15:05;;;;;;;0.68;0.43;;;;;;;-145.69;53.05;52175.06;5133903;27;20204;-79
2024/01/24 08:17:32;;;;;;;0.50;0.50;;;;;;;-145.69;53.24;52173.09;5134771;27;20647;-82
2024/01/24 08:19:58;;;;;;;0.80;0.80;;;;;;;-145.69;53.58;52198.81;5134387;27;20207;-82
2024/01/24 08:22:29;;;;;;;0.40;0.40;;;;;;;-145.69;53.80;52196.84;5134631;27;20227;-82
2024/01/24 08:24:55;;;;;;;0.45;0.45;;;;;;;-145.69;53.59;52179.03;5134360;27;20197;-82
2024/01/24 08:27:22;;;;;;;0.50;0.50;;;;;;;-145.69;53.24;52196.84;5135078;27;20208;-82
2024/01/24 08:29:49;;;;;;;1.73;0.70;;;;;;;-145.69;53.02;52181.00;5134504;27;20615;-82
2024/01/24 08:32:15;;;;;;;0.60;0.60;;;;;;;-145.69;53.06;52169.13;5132372;27;20200;-81
2024/01/24 08:34:43;;;;;;;1.48;0.70;;;;;;;-145.69;53.50;52222.59;5134004;27;20189;-81
2024/01/24 08:37:10;;;;;;;1.20;0.30;;;;;;;-145.69;52.69;52173.09;5138117;27;20188;-80
2024/01/24 08:39:38;;;;;;;0.50;0.50;;;;;;;-145.69;52.72;52190.91;5155130;27;20192;-80
2024/01/24 08:42:04;;;;;;;0.30;0.30;;;;;;;-145.69;52.49;52198.81;5140797;27;20228;-81
2024/01/24 08:44:30;;;;;;;0.63;0.50;;;;;;;-145.69;52.97;52179.03;5133962;27;20204;-81
2024/01/24 08:46:57;;;;;;;0.55;0.50;;;;;;;-145.69;52.72;52184.97;5134119;27;20654;-82
2024/01/24 08:49:23;;;;;;;0.50;0.50;;;;;;;-145.69;53.29;52169.13;5127417;27;20595;-80
2024/01/24 08:51:50;;;;;;;0.70;0.40;;;;;;;-145.69;52.90;52184.97;5112996;28;20809;-81
2024/01/24 08:54:16;;;;;;;2.20;1.52;;;;;;;-145.69;52.41;52167.13;5118725;27;20643;-81
2024/01/24 08:56:44;;;;;;;0.55;0.55;;;;;;;-145.69;52.45;52171.09;5133529;27;20201;-82
2024/01/24 08:59:11;;;;;;;0.82;0.60;;;;;;;-145.69;52.19;52177.03;5134105;27;20204;-82
2024/01/24 09:01:37;;;;;;;0.70;0.70;;;;;;;-145.69;51.93;52204.75;5133895;27;20319;-82
2024/01/24 09:04:04;;;;;;;0.95;0.85;;;;;;;-145.69;52.15;52155.25;5133459;27;20200;-82
2024/01/24 09:06:31;;;;;;;0.60;0.60;;;;;;;-145.69;52.31;52175.06;5133095;27;20207;-82
2024/01/24 09:08:57;;;;;;;1.60;0.50;;;;;;;-145.69;51.86;52153.28;5133396;27;20203;-82
2024/01/24 09:11:24;;;;;;;0.50;0.50;;;;;;;-145.69;51.39;52175.06;5133390;27;20196;-81
2024/01/24 09:13:52;;;;;;;0.35;0.35;;;;;;;-145.69;52.00;52169.13;5133477;27;20196;-81
2024/01/24 09:16:18;;;;;;;0.50;0.50;;;;;;;-145.69;51.25;52169.13;5133419;27;20203;-81
2024/01/24 09:18:45;;;;;;;0.80;0.55;;;;;;;-145.69;51.30;52161.19;5133574;27;20204;-80
2024/01/24 09:21:11;;;;;;;0.40;0.40;;;;;;;-145.69;51.63;52186.94;5132743;27;20605;-81
2024/01/24 09:23:38;;;;;;;1.13;0.50;;;;;;;-145.69;51.49;52206.75;5133602;27;20203;-79
2024/01/24 09:26:04;;;;;;;0.50;0.50;;;;;;;-145.69;51.93;52202.78;5132615;27;20189;-81
2024/01/24 09:28:31;;;;;;;0.40;0.40;;;;;;;-145.69;52.05;52190.91;5133829;27;20193;-80
2024/01/24 09:30:59;;;;;;;0.45;0.45;;;;;;;-145.69;52.56;52188.91;5133278;27;20208;-81
2024/01/24 09:33:25;;;;;;;0.85;0.60;;;;;;;-145.69;51.94;52135.47;5133622;27;20208;-79
2024/01/24 09:35:52;;;;;;;0.50;0.50;;;;;;;-145.69;51.78;52155.25;5132985;27;20555;-81
2024/01/24 09:38:19;;;;;;;0.40;0.40;;;;;;;-145.69;51.48;52188.91;5133464;27;20200;-80
2024/01/24 09:40:45;;;;;;;0.73;0.55;;;;;;;-145.69;51.42;52147.34;5132949;27;20689;-80
2024/01/24 09:43:14;;;;;;;0.40;0.40;;;;;;;-145.69;51.33;52171.09;5133082;27;20231;-80
2024/01/24 09:45:43;;;;;;;0.73;0.47;;;;;;;-145.69;51.13;52149.31;5133110;27;20204;-80
2024/01/24 09:48:12;;;;;;;0.30;0.25;;;;;;;-145.69;51.84;52175.06;5112194;28;20340;-80
2024/01/24 09:50:39;;;;;;;1.00;0.40;;;;;;;-145.69;52.17;52173.09;5112719;28;20193;-80
2024/01/24 09:53:10;;;;;;;0.40;0.40;;;;;;;-145.69;51.81;52149.31;5112670;28;20209;-80
2024/01/24 09:55:36;;;;;;;0.60;0.60;;;;;;;-145.69;51.86;52175.06;5112870;28;20201;-80
2024/01/24 09:58:03;;;;;;;0.30;0.30;;;;;;;-145.69;51.55;52157.25;5132247;28;20193;-79
2024/01/24 10:00:29;;;;;;;0.40;0.40;;;;;;;-145.69;50.92;52163.19;5133254;27;20196;-80
2024/01/24 10:02:56;;;;;;;0.40;0.40;;;;;;;-145.69;51.52;52171.09;5132842;27;20236;-81
2024/01/24 10:05:26;;;;;;;0.35;0.35;;;;;;;-145.69;51.51;52159.22;5132660;27;20189;-80
2024/01/24 10:07:54;;;;;;;0.32;0.22;;;;;;;-145.69;51.49;52169.13;5133107;27;20201;-80
2024/01/24 10:10:21;;;;;;;1.85;0.40;;;;;;;-145.69;51.22;52169.13;5132941;27;20673;-80
2024/01/24 10:12:47;;;;;;;2.00;1.20;;;;;;;-145.69;50.93;52175.06;5133022;27;20201;-80
2024/01/24 10:15:14;;;;;;;0.40;0.40;;;;;;;-145.69;50.98;52147.34;5133204;28;20212;-81
2024/01/24 10:17:42;;;;;;;0.63;0.50;;;;;;;-145.69;50.12;52161.19;5132867;28;20193;-80
2024/01/24 10:20:11;;;;;;;0.80;0.40;;;;;;;-145.69;50.74;52131.50;5132565;27;20647;-80
2024/01/24 10:22:39;;;;;;;0.40;0.40;;;;;;;-145.69;50.46;52141.41;5132604;27;20691;-82
2024/01/24 10:25:09;;;;;;;0.40;0.40;;;;;;;-145.69;50.68;52186.94;5136844;27;20283;-80
2024/01/24 10:27:39;;;;;;;0.32;0.32;;;;;;;-145.69;50.37;52171.09;5136412;27;20200;-82
2024/01/24 10:30:10;;;;;;;0.73;0.47;;;;;;;-145.69;50.53;52151.28;5136721;27;20228;-81
2024/01/24 10:32:37;;;;;;;0.50;0.50;;;;;;;-145.69;50.39;52173.09;5136538;27;20232;-83
2024/01/24 10:35:08;;;;;;;0.60;0.50;;;;;;;-145.69;50.85;52165.16;5135470;27;20891;-81
2024/01/24 10:37:35;;;;;;;0.60;0.60;;;;;;;5.89;49.80;52139.41;5136189;27;20242;-80
2024/01/24 10:40:05;;;;;;;0.57;0.50;;;;;;;-145.69;49.91;52167.13;5136714;27;20213;-81
2024/01/24 10:42:36;;;;;;;0.40;0.40;;;;;;;-145.69;50.14;52143.38;5136566;27;20258;-80
2024/01/24 10:45:05;;;;;;;0.40;0.40;;;;;;;-145.69;49.85;52147.34;5135491;27;20200;-83
2024/01/24 10:47:32;;;;;;;0.40;0.40;;;;;;;-145.69;49.86;52159.22;5130495;27;20209;-84
2024/01/24 10:50:04;;;;;;;0.30;0.30;;;;;;;-145.69;49.46;52147.34;5137183;27;20758;-82
2024/01/24 10:52:33;;;;;;;0.40;0.40;;;;;;;-145.69;49.69;52127.53;5136684;27;20201;-83
2024/01/24 10:55:04;;;;;;;0.60;0.50;;;;;;;-145.69;49.35;52161.19;5136459;27;20192;-83
2024/01/24 10:57:31;;;;;;;0.40;0.40;;;;;;;-145.69;49.34;52153.28;5136164;27;20205;-83
2024/01/24 10:59:57;;;;;;;0.50;0.50;;;;;;;-145.69;49.51;52113.66;5136684;27;20200;-82
2024/01/24 11:02:24;;;;;;;0.30;0.30;;;;;;;-145.69;49.78;52159.22;5135696;27;20228;-80
2024/01/24 11:04:52;;;;;;;0.50;0.50;;;;;;;-145.69;49.70;52139.41;5135747;27;20228;-81
2024/01/24 11:07:27;;;;;;;0.30;0.30;;;;;;;-145.69;49.44;52165.16;5136104;27;20208;-81
2024/01/24 11:10:14;;;;;;;0.30;0.30;;;;;;;-145.69;48.90;52161.19;5136015;27;20417;-80
2024/01/24 11:12:43;;;;;;;0.40;0.40;;;;;;;-145.69;48.77;52147.34;5135680;27;20204;-81
2024/01/24 11:15:13;;;;;;;1.75;0.45;;;;;;;-145.69;48.63;52123.56;5135978;27;20236;-81